Sao Paulo, Brazil
Current Conditions -  °F | °C
As of 6:00 PM on Saturday 25 Oct 2014 (Local Time) from SBMT Reporting Station
Haze Haze  
Wind Chill: 77°   Ceiling: 4000
Heat Index: 79°   Visibility: 3mi
Dew Point: 59°   Wind: 7mph
Humidity: 54%   Direction: 300°WNW
Pressure: 29.97"   Gusts: NA
Location:  23.53°S, 46.63°W
Report Text: SBMT 252000Z 30006KT 5000 HZ BKN040 BKN080 25/15 Q1015
Loading
Personal Weather Stations






























Interactive Weather Map
Tropical Storm Tracking
New forecast layout! Learn more

10-Day Weather Forecast

Advertisements
Track Severe Weather on mobile